createdAt,value
2023-04-08T00:00:11.873Z,5.6
2023-04-08T00:03:12.974Z,5.6
2023-04-08T00:06:11.674Z,5.6
2023-04-08T00:09:11.647Z,5.5
2023-04-08T00:12:11.757Z,5.5
2023-04-08T00:15:11.656Z,5.5
2023-04-08T00:18:12.222Z,5.5
2023-04-08T00:21:11.635Z,5.4
2023-04-08T00:24:11.720Z,5.5
2023-04-08T00:27:11.675Z,5.5
2023-04-08T00:30:11.739Z,5.5
2023-04-08T00:33:11.913Z,5.5
2023-04-08T00:36:11.973Z,5.5
2023-04-08T00:39:11.650Z,5.5
2023-04-08T00:42:11.845Z,5.5
2023-04-08T00:45:11.672Z,5.5
2023-04-08T00:48:11.858Z,5.4
2023-04-08T00:51:11.692Z,5.4
2023-04-08T00:54:11.656Z,5.4
2023-04-08T00:57:11.740Z,5.4
2023-04-08T01:00:11.801Z,5.4
2023-04-08T01:03:12.958Z,5.4
2023-04-08T01:06:11.757Z,5.5
2023-04-08T01:09:11.871Z,5.4
2023-04-08T01:12:11.669Z,5.5
2023-04-08T01:15:11.756Z,5.5
2023-04-08T01:18:12.099Z,5.5
2023-04-08T01:21:11.789Z,5.5
2023-04-08T01:24:11.676Z,5.5
2023-04-08T01:27:11.679Z,5.5
2023-04-08T01:30:11.736Z,5.5
2023-04-08T01:33:11.952Z,5.4
2023-04-08T01:36:12.009Z,5.4
2023-04-08T01:39:11.688Z,5.4
2023-04-08T01:42:11.698Z,5.4
2023-04-08T01:45:11.673Z,5.4
2023-04-08T01:48:11.985Z,5.4
2023-04-08T01:51:11.737Z,5.5
2023-04-08T01:54:11.737Z,5.4
2023-04-08T01:57:11.723Z,5.5
2023-04-08T02:00:11.795Z,5.5
2023-04-08T02:03:13.309Z,5.4
2023-04-08T02:06:11.662Z,5.4
2023-04-08T02:09:11.699Z,5.4
2023-04-08T02:12:11.769Z,5.4
2023-04-08T02:15:11.737Z,5.4
2023-04-08T02:18:12.677Z,5.5
2023-04-08T02:21:11.706Z,5.5
2023-04-08T02:24:14.891Z,5.5
2023-04-08T02:27:11.649Z,5.4
2023-04-08T02:30:11.822Z,5.4
2023-04-08T02:33:12.024Z,5.4
2023-04-08T02:36:11.908Z,5.4
2023-04-08T02:39:11.663Z,5.4
2023-04-08T02:42:13.975Z,5.4
2023-04-08T02:45:11.668Z,5.4
2023-04-08T02:48:11.971Z,5.4
2023-04-08T02:51:11.649Z,5.4
2023-04-08T02:54:11.757Z,5.5
2023-04-08T02:57:11.634Z,5.5
2023-04-08T03:00:11.804Z,5.5
2023-04-08T03:03:12.693Z,5.5
2023-04-08T03:06:11.790Z,5.5
2023-04-08T03:09:11.661Z,5.5
2023-04-08T03:12:11.720Z,5.5
2023-04-08T03:15:11.977Z,5.5
2023-04-08T03:18:11.974Z,5.5
2023-04-08T03:21:11.760Z,5.5
2023-04-08T03:24:11.675Z,5.4
2023-04-08T03:27:11.723Z,5.4
2023-04-08T03:30:12.644Z,5.4
2023-04-08T03:33:14.225Z,5.4
2023-04-08T03:36:11.957Z,5.4
2023-04-08T03:39:11.667Z,5.4
2023-04-08T03:42:11.792Z,5.4
2023-04-08T03:45:11.747Z,5.4
2023-04-08T03:48:11.970Z,5.4
2023-04-08T03:51:11.718Z,5.5
2023-04-08T03:54:11.731Z,5.5
2023-04-08T03:57:11.710Z,5.5
2023-04-08T04:00:11.842Z,5.5
2023-04-08T04:03:12.303Z,5.5
2023-04-08T04:06:11.666Z,5.5
2023-04-08T04:09:11.739Z,5.6
2023-04-08T04:12:11.706Z,5.6
2023-04-08T04:15:11.702Z,5.5
2023-04-08T04:18:12.224Z,5.6
2023-04-08T04:21:11.766Z,5.6
2023-04-08T04:24:11.679Z,5.5
2023-04-08T04:27:11.670Z,5.5
2023-04-08T04:30:11.911Z,5.5
2023-04-08T04:33:11.968Z,5.5
2023-04-08T04:36:11.901Z,5.5
2023-04-08T04:39:11.732Z,5.5
2023-04-08T04:42:11.796Z,5.5
2023-04-08T04:45:11.875Z,5.5
2023-04-08T04:48:12.133Z,5.6
2023-04-08T04:51:11.887Z,5.6
2023-04-08T04:54:11.781Z,5.6
2023-04-08T04:57:11.676Z,5.6
2023-04-08T05:00:15.521Z,5.5
2023-04-08T05:03:12.668Z,5.6
2023-04-08T05:06:11.797Z,5.6
2023-04-08T05:09:11.749Z,5.6
2023-04-08T05:12:11.859Z,5.5
2023-04-08T05:15:11.792Z,5.6
2023-04-08T05:18:12.162Z,5.6
2023-04-08T05:21:11.790Z,5.6
2023-04-08T05:24:11.659Z,5.6
2023-04-08T05:27:11.817Z,5.6
2023-04-08T05:30:12.407Z,5.6
2023-04-08T05:33:12.494Z,5.6
2023-04-08T05:36:12.056Z,5.7
2023-04-08T05:39:14.428Z,5.9
2023-04-08T05:42:11.707Z,5.9
2023-04-08T05:45:11.771Z,5.9
2023-04-08T05:48:12.045Z,6
2023-04-08T05:51:11.744Z,6
2023-04-08T05:54:11.731Z,6
2023-04-08T05:57:13.611Z,6
2023-04-08T06:00:11.867Z,6
2023-04-08T06:03:13.920Z,6.1
2023-04-08T06:06:11.736Z,6.1
2023-04-08T06:09:11.809Z,6.2
2023-04-08T06:12:12.031Z,6.2
2023-04-08T06:15:11.839Z,6.4
2023-04-08T06:18:11.972Z,6.2
2023-04-08T06:21:11.835Z,6.2
2023-04-08T06:24:11.757Z,6.2
2023-04-08T06:27:11.839Z,6.2
2023-04-08T06:30:11.817Z,6.4
2023-04-08T06:33:12.090Z,6.2
2023-04-08T06:36:12.088Z,6.4
2023-04-08T06:39:11.793Z,6.4
2023-04-08T06:42:11.701Z,6.5
2023-04-08T06:45:11.856Z,6.5
2023-04-08T06:48:12.127Z,6.6
2023-04-08T06:51:11.859Z,6.6
2023-04-08T06:54:11.811Z,6.7
2023-04-08T06:57:11.953Z,6.7
2023-04-08T07:00:12.283Z,6.9
2023-04-08T07:03:12.535Z,7
2023-04-08T07:06:11.775Z,7.1
2023-04-08T07:09:11.721Z,7.2
2023-04-08T07:12:11.807Z,7.4
2023-04-08T07:15:11.762Z,7.5
2023-04-08T07:18:11.841Z,7.5
2023-04-08T07:21:11.745Z,7.5
2023-04-08T07:24:11.716Z,7.6
2023-04-08T07:27:11.810Z,7.7
2023-04-08T07:30:11.617Z,8
2023-04-08T07:33:12.771Z,7.9
2023-04-08T07:36:11.971Z,7.9
2023-04-08T07:39:11.800Z,7.7
2023-04-08T07:42:11.697Z,7.9
2023-04-08T07:45:11.739Z,7.7
2023-04-08T07:48:12.056Z,7.9
2023-04-08T07:51:25.393Z,7.9
2023-04-08T07:54:11.718Z,8.3
2023-04-08T07:57:12.187Z,8.3
2023-04-08T08:00:11.902Z,8.3
2023-04-08T08:03:12.527Z,8.3
2023-04-08T08:06:11.810Z,8.1
2023-04-08T08:09:11.852Z,8
2023-04-08T08:12:11.715Z,8
2023-04-08T08:15:11.810Z,7.9
2023-04-08T08:18:12.071Z,7.7
2023-04-08T08:21:11.850Z,7.7
2023-04-08T08:24:11.785Z,7.6
2023-04-08T08:27:11.708Z,7.6
2023-04-08T08:30:11.914Z,7.6
2023-04-08T08:33:12.181Z,7.6
2023-04-08T08:36:12.033Z,7.7
2023-04-08T08:39:11.803Z,8
2023-04-08T08:42:11.744Z,8.3
2023-04-08T08:45:11.803Z,8.5
2023-04-08T08:48:11.971Z,8.5
2023-04-08T08:51:11.769Z,8.5
2023-04-08T08:54:11.806Z,8.6
2023-04-08T08:57:11.692Z,8.8
2023-04-08T09:00:11.918Z,8.6
2023-04-08T09:03:13.229Z,8.6
2023-04-08T09:06:14.419Z,8.5
2023-04-08T09:09:11.746Z,8.5
2023-04-08T09:12:11.752Z,8.4
2023-04-08T09:15:11.744Z,8.5
2023-04-08T09:18:12.074Z,8.5
2023-04-08T09:21:11.790Z,8.8
2023-04-08T09:24:11.754Z,8.9
2023-04-08T09:27:11.676Z,8.9
2023-04-08T09:30:11.763Z,9
2023-04-08T09:33:12.079Z,9.1
2023-04-08T09:36:12.132Z,9.4
2023-04-08T09:39:11.751Z,9.4
2023-04-08T09:42:11.800Z,9.3
2023-04-08T09:45:11.772Z,9.6
2023-04-08T09:48:12.167Z,10
2023-04-08T09:51:11.991Z,10.5
2023-04-08T09:54:11.729Z,10.6
2023-04-08T09:57:11.952Z,10.6
2023-04-08T10:00:11.902Z,10.6
2023-04-08T10:03:13.467Z,10.8
2023-04-08T10:06:11.822Z,10.6
2023-04-08T10:09:11.953Z,10.8
2023-04-08T10:12:11.808Z,10.9
2023-04-08T10:15:11.708Z,10.9
2023-04-08T10:18:12.518Z,11.1
2023-04-08T10:21:11.846Z,11.1
2023-04-08T10:24:11.810Z,11.1
2023-04-08T10:27:11.690Z,11.1
2023-04-08T10:30:11.840Z,11.1
2023-04-08T10:33:11.867Z,11.1
2023-04-08T10:36:12.254Z,11.3
2023-04-08T10:39:11.725Z,11.3
2023-04-08T10:42:11.806Z,11.3
2023-04-08T10:45:11.685Z,11.3
2023-04-08T10:48:11.979Z,11.3
2023-04-08T10:51:11.873Z,11.4
2023-04-08T10:54:11.760Z,11.5
2023-04-08T10:57:11.717Z,11.6
2023-04-08T11:00:11.843Z,12.2
2023-04-08T11:03:15.847Z,12.8
2023-04-08T11:06:11.829Z,13
2023-04-08T11:09:11.745Z,13.3
2023-04-08T11:12:11.693Z,13.3
2023-04-08T11:15:11.796Z,13.1
2023-04-08T11:18:12.304Z,13.4
2023-04-08T11:21:11.716Z,13.5
2023-04-08T11:24:11.715Z,13.6
2023-04-08T11:27:11.781Z,13.6
2023-04-08T11:30:11.797Z,13.6
2023-04-08T11:33:12.217Z,13.5
2023-04-08T11:36:12.276Z,13.6
2023-04-08T11:39:11.690Z,13.8
2023-04-08T11:42:11.792Z,13.8
2023-04-08T11:45:11.701Z,13.9
2023-04-08T11:48:16.072Z,14.1
2023-04-08T11:51:11.710Z,14
2023-04-08T11:54:11.981Z,14.3
2023-04-08T11:57:11.829Z,14.5
2023-04-08T12:00:11.862Z,14.9
2023-04-08T12:03:12.406Z,15.4
2023-04-08T12:06:11.733Z,15.5
2023-04-08T12:09:11.771Z,15.3
2023-04-08T12:12:11.743Z,15.1
2023-04-08T12:15:11.765Z,15.1
2023-04-08T12:18:12.250Z,15.6
2023-04-08T12:21:11.719Z,15.8
2023-04-08T12:24:11.847Z,15.6
2023-04-08T12:27:11.821Z,15.5
2023-04-08T12:30:11.907Z,15.3
2023-04-08T12:33:12.130Z,15.1
2023-04-08T12:36:15.102Z,15
2023-04-08T12:39:11.730Z,14.6
2023-04-08T12:42:11.755Z,14.5
2023-04-08T12:45:11.755Z,14.3
2023-04-08T12:48:12.439Z,14
2023-04-08T12:51:11.736Z,13.8
2023-04-08T12:54:11.770Z,13.6
2023-04-08T12:57:11.815Z,13.6
2023-04-08T13:00:12.061Z,14
2023-04-08T13:03:12.571Z,14.4
2023-04-08T13:06:11.766Z,14.5
2023-04-08T13:09:11.895Z,14.7
2023-04-08T13:12:11.710Z,14.5
2023-04-08T13:15:11.824Z,14.3
2023-04-08T13:18:12.141Z,14
2023-04-08T13:21:11.748Z,13.9
2023-04-08T13:24:11.828Z,13.9
2023-04-08T13:27:11.711Z,13.9
2023-04-08T13:30:11.925Z,13.9
2023-04-08T13:33:12.268Z,13.9
2023-04-08T13:36:12.143Z,13.8
2023-04-08T13:39:11.856Z,13.4
2023-04-08T13:42:11.856Z,13.1
2023-04-08T13:45:11.784Z,13
2023-04-08T13:48:12.150Z,13.1
2023-04-08T13:51:11.808Z,13.1
2023-04-08T13:54:11.730Z,13.4
2023-04-08T13:57:11.771Z,13.6
2023-04-08T14:00:11.986Z,14
2023-04-08T14:03:12.017Z,14.1
2023-04-08T14:06:13.045Z,14.1
2023-04-08T14:09:11.724Z,13.9
2023-04-08T14:12:11.778Z,13.6
2023-04-08T14:15:11.735Z,13.6
2023-04-08T14:18:14.924Z,13.4
2023-04-08T14:21:11.796Z,13
2023-04-08T14:24:13.893Z,12.5
2023-04-08T14:27:11.724Z,12.1
2023-04-08T14:30:11.742Z,11.9
2023-04-08T14:33:12.818Z,11.9
2023-04-08T14:36:12.094Z,11.8
2023-04-08T14:39:11.778Z,11.6
2023-04-08T14:42:11.808Z,11.9
2023-04-08T14:45:11.800Z,12
2023-04-08T14:48:12.198Z,11.8
2023-04-08T14:51:11.716Z,11.9
2023-04-08T14:54:11.898Z,11.9
2023-04-08T14:57:11.676Z,12
2023-04-08T15:00:11.877Z,12
2023-04-08T15:03:12.758Z,11.9
2023-04-08T15:06:11.718Z,12
2023-04-08T15:09:11.826Z,12
2023-04-08T15:12:13.178Z,12.1
2023-04-08T15:15:11.832Z,12.2
2023-04-08T15:18:12.134Z,12.5
2023-04-08T15:21:11.820Z,12.8
2023-04-08T15:24:11.770Z,12.9
2023-04-08T15:27:11.735Z,13
2023-04-08T15:30:14.457Z,13.1
2023-04-08T15:33:12.055Z,13
2023-04-08T15:36:12.058Z,12.8
2023-04-08T15:39:11.787Z,12.6
2023-04-08T15:42:11.721Z,12.5
2023-04-08T15:45:11.751Z,12.5
2023-04-08T15:48:12.104Z,12.6
2023-04-08T15:51:12.087Z,12.9
2023-04-08T15:54:11.751Z,13.5
2023-04-08T15:57:11.791Z,14.6
2023-04-08T16:00:12.084Z,16.8
2023-04-08T16:03:13.741Z,19.4
2023-04-08T16:06:11.812Z,20.4
2023-04-08T16:09:11.718Z,19.8
2023-04-08T16:12:11.823Z,18.5
2023-04-08T16:15:11.845Z,17.4
2023-04-08T16:18:12.017Z,16.5
2023-04-08T16:21:11.736Z,15.6
2023-04-08T16:24:11.823Z,15.3
2023-04-08T16:27:11.732Z,14.7
2023-04-08T16:30:11.837Z,14.1
2023-04-08T16:33:11.841Z,13.6
2023-04-08T16:36:12.014Z,13.1
2023-04-08T16:39:11.688Z,12.6
2023-04-08T16:42:11.759Z,12.2
2023-04-08T16:45:11.720Z,12
2023-04-08T16:48:12.284Z,11.8
2023-04-08T16:51:11.776Z,11.6
2023-04-08T16:54:12.041Z,11.4
2023-04-08T16:57:11.784Z,11.3
2023-04-08T17:00:11.813Z,11
2023-04-08T17:03:12.973Z,10.9
2023-04-08T17:06:11.754Z,10.8
2023-04-08T17:09:11.741Z,10.5
2023-04-08T17:12:12.014Z,10.4
2023-04-08T17:15:11.815Z,10.3
2023-04-08T17:18:11.970Z,10
2023-04-08T17:21:11.719Z,10
2023-04-08T17:24:11.802Z,9.9
2023-04-08T17:27:11.791Z,9.8
2023-04-08T17:30:13.870Z,9.6
2023-04-08T17:33:11.885Z,9.5
2023-04-08T17:36:12.038Z,9.4
2023-04-08T17:39:11.735Z,9.3
2023-04-08T17:42:11.726Z,9
2023-04-08T17:45:11.676Z,8.9
2023-04-08T17:48:14.058Z,8.8
2023-04-08T17:51:11.742Z,8.8
2023-04-08T17:54:11.745Z,8.5
2023-04-08T17:57:11.708Z,8.5
2023-04-08T18:00:11.816Z,8.3
2023-04-08T18:03:13.162Z,8.1
2023-04-08T18:06:11.782Z,8
2023-04-08T18:09:11.649Z,8
2023-04-08T18:12:11.784Z,7.9
2023-04-08T18:15:11.736Z,7.7
2023-04-08T18:18:11.835Z,7.6
2023-04-08T18:21:11.723Z,7.5
2023-04-08T18:24:13.531Z,7.2
2023-04-08T18:27:16.009Z,7
2023-04-08T18:30:11.729Z,6.9
2023-04-08T18:33:11.903Z,6.6
2023-04-08T18:36:12.399Z,6.5
2023-04-08T18:39:11.647Z,6.2
2023-04-08T18:42:11.694Z,6.1
2023-04-08T18:45:11.696Z,6
2023-04-08T18:48:11.913Z,5.9
2023-04-08T18:51:11.713Z,5.7
2023-04-08T18:54:11.714Z,5.6
2023-04-08T18:57:11.690Z,5.5
2023-04-08T19:00:11.862Z,5.2
2023-04-08T19:03:16.304Z,5.2
2023-04-08T19:06:11.684Z,5
2023-04-08T19:09:11.777Z,4.9
2023-04-08T19:12:11.794Z,4.7
2023-04-08T19:15:11.685Z,4.6
2023-04-08T19:18:11.987Z,4.5
2023-04-08T19:21:11.645Z,4.4
2023-04-08T19:24:11.681Z,4.2
2023-04-08T19:27:11.713Z,4.1
2023-04-08T19:30:11.723Z,4
2023-04-08T19:33:11.851Z,3.7
2023-04-08T19:36:12.102Z,3.6
2023-04-08T19:39:11.700Z,3.5
2023-04-08T19:42:11.686Z,3.4
2023-04-08T19:45:11.729Z,3.2
2023-04-08T19:48:11.673Z,3.1
2023-04-08T19:51:11.720Z,3
2023-04-08T19:54:11.676Z,3
2023-04-08T19:57:11.665Z,2.9
2023-04-08T20:00:14.082Z,3
2023-04-08T20:03:13.707Z,3.1
2023-04-08T20:06:11.703Z,3.1
2023-04-08T20:09:11.699Z,3.2
2023-04-08T20:12:11.736Z,3.2
2023-04-08T20:15:26.390Z,3.2
2023-04-08T20:18:11.814Z,3.4
2023-04-08T20:21:11.659Z,3.5
2023-04-08T20:24:11.778Z,3.6
2023-04-08T20:27:11.856Z,3.7
2023-04-08T20:30:11.740Z,3.9
2023-04-08T20:33:11.877Z,4.1
2023-04-08T20:36:11.815Z,4.1
2023-04-08T20:39:11.682Z,4.2
2023-04-08T20:42:11.705Z,4.4
2023-04-08T20:45:11.834Z,4.4
2023-04-08T20:48:12.075Z,4.5
2023-04-08T20:51:11.652Z,4.5
2023-04-08T20:54:11.669Z,4.5
2023-04-08T20:57:11.703Z,4.5
2023-04-08T21:00:11.829Z,4.5
2023-04-08T21:03:12.437Z,4.4
2023-04-08T21:06:11.696Z,4.2
2023-04-08T21:09:11.720Z,4.1
2023-04-08T21:12:11.668Z,4
2023-04-08T21:15:11.732Z,3.7
2023-04-08T21:18:12.015Z,3.6
2023-04-08T21:21:11.717Z,3.5
2023-04-08T21:24:11.695Z,3.4
2023-04-08T21:27:11.692Z,3.2
2023-04-08T21:30:11.735Z,3.1
2023-04-08T21:33:11.994Z,3
2023-04-08T21:36:12.022Z,2.7
2023-04-08T21:39:11.721Z,2.6
2023-04-08T21:42:11.725Z,2.5
2023-04-08T21:45:11.723Z,2.4
2023-04-08T21:48:11.848Z,2.2
2023-04-08T21:51:11.696Z,2.2
2023-04-08T21:54:11.650Z,2.1
2023-04-08T21:57:11.748Z,2.1
2023-04-08T22:00:12.200Z,2.1
2023-04-08T22:03:13.263Z,2.1
2023-04-08T22:06:25.692Z,2.1
2023-04-08T22:09:11.688Z,2
2023-04-08T22:12:11.808Z,1.9
2023-04-08T22:15:11.636Z,1.8
2023-04-08T22:18:11.926Z,1.6
2023-04-08T22:21:11.698Z,1.6
2023-04-08T22:24:11.653Z,1.6
2023-04-08T22:27:11.699Z,1.6
2023-04-08T22:30:11.721Z,1.9
2023-04-08T22:33:11.726Z,2
2023-04-08T22:36:11.931Z,2.2
2023-04-08T22:39:11.655Z,2.5
2023-04-08T22:42:11.705Z,2.6
2023-04-08T22:45:11.708Z,2.7
2023-04-08T22:48:12.056Z,2.9
2023-04-08T22:51:11.747Z,3.1
2023-04-08T22:54:11.711Z,3.2
2023-04-08T22:57:11.670Z,3.4
2023-04-08T23:00:15.250Z,3.5
2023-04-08T23:03:12.224Z,3.6
2023-04-08T23:06:11.701Z,3.7
2023-04-08T23:09:11.749Z,3.9
2023-04-08T23:12:11.628Z,3.9
2023-04-08T23:15:11.721Z,4
2023-04-08T23:18:11.727Z,4
2023-04-08T23:21:11.715Z,4
2023-04-08T23:24:11.782Z,4
2023-04-08T23:27:11.709Z,4
2023-04-08T23:30:11.753Z,3.9
2023-04-08T23:33:11.720Z,3.6
2023-04-08T23:36:12.036Z,3.4
2023-04-08T23:39:11.641Z,3.1
2023-04-08T23:42:11.691Z,2.9
2023-04-08T23:45:11.730Z,2.6
2023-04-08T23:48:14.395Z,2.5
2023-04-08T23:51:11.692Z,2.4
2023-04-08T23:54:11.698Z,2.4
2023-04-08T23:57:11.741Z,2.4
